Time;durP1;ratioP1;P1;durP2;ratioP2;P2;SDS_P1;SDS_P2;PMS_P1;PMS_P2;Temp;Humidity;BMP_temperature;BMP_pressure;BME280_temperature;BME280_humidity;BME280_pressure;Samples;Min_cycle;Max_cycle;Signal;HPM_P1;HPM_P2
2023/07/25 00:00:52;;;;;;;5.17;3.80;;;19.50;99.90;;;;;;5055067;28;20632;-69
2023/07/25 00:03:19;;;;;;;5.83;3.00;;;19.40;99.90;;;;;;5055160;28;20538;-68
2023/07/25 00:05:46;;;;;;;5.77;3.40;;;19.50;99.90;;;;;;5054786;28;20435;-68
2023/07/25 00:08:13;;;;;;;5.27;2.80;;;19.50;99.90;;;;;;5055016;28;20521;-68
2023/07/25 00:10:40;;;;;;;4.57;2.90;;;19.40;99.90;;;;;;5055086;28;20862;-68
2023/07/25 00:13:08;;;;;;;8.43;3.00;;;19.40;99.90;;;;;;5054944;28;20481;-68
2023/07/25 00:15:35;;;;;;;8.83;4.10;;;19.30;99.90;;;;;;5054792;28;20521;-68
2023/07/25 00:18:02;;;;;;;3.90;2.80;;;19.30;99.90;;;;;;5054724;28;20844;-68
2023/07/25 00:20:29;;;;;;;8.40;3.30;;;19.30;99.90;;;;;;5054776;28;20529;-71
2023/07/25 00:22:56;;;;;;;4.80;3.67;;;19.40;99.90;;;;;;5054642;28;20517;-68
2023/07/25 00:25:23;;;;;;;6.63;3.70;;;19.40;99.90;;;;;;5054678;28;20522;-67
2023/07/25 00:27:50;;;;;;;6.93;3.50;;;19.40;99.90;;;;;;5054628;28;20477;-68
2023/07/25 00:30:18;;;;;;;4.93;3.50;;;19.40;99.90;;;;;;5054607;28;20521;-69
2023/07/25 00:32:45;;;;;;;5.67;3.13;;;19.40;99.90;;;;;;5054393;28;20562;-68
2023/07/25 00:35:12;;;;;;;6.50;3.20;;;19.40;99.90;;;;;;5054449;28;20447;-68
2023/07/25 00:37:39;;;;;;;4.80;3.50;;;19.40;99.90;;;;;;5054156;28;21012;-68
2023/07/25 00:40:07;;;;;;;7.10;3.33;;;19.40;99.90;;;;;;5054392;28;20517;-69
2023/07/25 00:42:34;;;;;;;4.30;2.80;;;19.40;99.90;;;;;;5054082;28;20442;-68
2023/07/25 00:45:01;;;;;;;6.70;2.83;;;19.40;99.90;;;;;;5054417;28;20526;-68
2023/07/25 00:47:29;;;;;;;5.20;2.97;;;19.40;99.90;;;;;;5054185;28;20517;-68
2023/07/25 00:49:56;;;;;;;5.47;3.57;;;19.40;99.90;;;;;;5054173;28;20522;-68
2023/07/25 00:52:23;;;;;;;6.57;3.43;;;19.40;99.90;;;;;;5054154;28;20558;-68
2023/07/25 00:54:51;;;;;;;5.40;3.60;;;19.40;99.90;;;;;;5054301;28;20940;-68
2023/07/25 00:57:19;;;;;;;4.10;2.70;;;19.30;99.90;;;;;;5053841;28;20534;-69
2023/07/25 00:59:46;;;;;;;5.30;3.23;;;19.20;99.90;;;;;;5053722;28;20530;-68
2023/07/25 01:02:14;;;;;;;5.53;3.00;;;19.10;99.90;;;;;;5053646;28;20522;-68
2023/07/25 01:04:43;;;;;;;5.47;2.53;;;18.90;99.90;;;;;;5053653;28;21011;-68
2023/07/25 01:07:13;;;;;;;4.40;2.77;;;18.90;99.90;;;;;;5053905;28;20449;-68
2023/07/25 01:09:41;;;;;;;4.60;3.27;;;18.90;99.90;;;;;;5053750;28;20472;-69
2023/07/25 01:12:08;;;;;;;5.07;2.77;;;18.90;99.90;;;;;;5053700;28;20447;-67
2023/07/25 01:14:36;;;;;;;7.80;3.63;;;18.80;99.90;;;;;;5053505;28;20519;-68
2023/07/25 01:17:08;;;;;;;4.67;3.33;;;18.90;99.90;;;;;;5053726;28;20853;-68
2023/07/25 01:19:36;;;;;;;4.53;3.00;;;18.90;99.90;;;;;;5053450;28;20426;-68
2023/07/25 01:22:06;;;;;;;4.73;2.97;;;18.80;99.90;;;;;;5053799;28;20466;-69
2023/07/25 01:24:34;;;;;;;6.40;3.10;;;18.80;99.90;;;;;;5053496;28;20996;-69
2023/07/25 01:27:02;;;;;;;4.23;3.20;;;18.70;99.90;;;;;;5053401;28;20513;-68
2023/07/25 01:29:29;;;;;;;5.50;2.90;;;18.60;99.90;;;;;;5053613;28;20443;-68
2023/07/25 01:31:55;;;;;;;4.90;3.13;;;18.50;99.90;;;;;;5053266;28;20525;-68
2023/07/25 01:34:22;;;;;;;5.20;3.00;;;18.50;99.90;;;;;;5053400;28;20473;-68
2023/07/25 01:36:49;;;;;;;5.47;2.97;;;18.60;99.90;;;;;;5053558;28;20520;-68
2023/07/25 01:39:16;;;;;;;4.80;3.53;;;18.60;99.90;;;;;;5053480;28;20534;-68
2023/07/25 01:41:45;;;;;;;5.23;3.60;;;18.70;99.90;;;;;;5053485;28;20521;-67
2023/07/25 01:44:12;;;;;;;5.33;3.63;;;18.70;99.90;;;;;;5053489;28;20489;-68
2023/07/25 01:46:40;;;;;;;5.60;3.27;;;18.80;99.90;;;;;;5054560;28;20529;-68
2023/07/25 01:49:09;;;;;;;5.17;4.33;;;18.90;99.90;;;;;;5057652;28;20444;-68
2023/07/25 01:51:36;;;;;;;5.03;3.43;;;18.90;99.90;;;;;;5057355;28;21019;-68
2023/07/25 01:54:03;;;;;;;5.10;3.53;;;18.90;99.90;;;;;;5057558;28;20564;-68
2023/07/25 01:56:30;;;;;;;4.83;2.90;;;19.00;99.90;;;;;;5057506;28;20530;-68
2023/07/25 01:58:58;;;;;;;4.27;3.30;;;19.00;99.90;;;;;;5057164;28;20985;-68
2023/07/25 02:01:25;;;;;;;5.37;3.40;;;19.00;99.90;;;;;;5057016;28;20991;-68
2023/07/25 02:03:52;;;;;;;6.90;3.33;;;19.00;99.90;;;;;;5057067;28;20980;-68
2023/07/25 02:06:19;;;;;;;4.80;3.57;;;19.00;99.90;;;;;;5057332;28;20525;-68
2023/07/25 02:08:45;;;;;;;5.97;3.20;;;18.90;99.90;;;;;;5057379;28;20536;-68
2023/07/25 02:11:12;;;;;;;4.10;3.00;;;18.90;99.90;;;;;;5056948;28;21002;-68
2023/07/25 02:13:39;;;;;;;7.33;3.40;;;18.90;99.90;;;;;;5057159;28;20505;-68
2023/07/25 02:16:07;;;;;;;7.00;2.60;;;18.90;99.90;;;;;;5056769;28;20513;-68
2023/07/25 02:18:34;;;;;;;15.50;3.50;;;18.90;99.90;;;;;;5057040;28;20524;-68
2023/07/25 02:21:01;;;;;;;5.90;2.93;;;18.80;99.90;;;;;;5056955;28;20533;-68
2023/07/25 02:23:28;;;;;;;6.23;3.53;;;18.80;99.90;;;;;;5057017;28;20450;-68
2023/07/25 02:25:55;;;;;;;4.77;3.23;;;18.90;99.90;;;;;;5056920;28;20858;-68
2023/07/25 02:28:22;;;;;;;4.53;2.80;;;18.90;99.90;;;;;;5057012;28;20530;-71
2023/07/25 02:30:49;;;;;;;6.23;3.23;;;18.80;99.90;;;;;;5056858;28;20474;-68
2023/07/25 02:33:17;;;;;;;9.10;3.83;;;18.80;99.90;;;;;;5056731;28;20564;-68
2023/07/25 02:35:44;;;;;;;4.63;3.33;;;18.80;99.90;;;;;;5056469;28;20525;-68
2023/07/25 02:38:12;;;;;;;4.47;3.30;;;18.80;99.90;;;;;;5056737;28;20521;-68
2023/07/25 02:40:38;;;;;;;5.93;3.17;;;18.80;99.90;;;;;;5056350;28;20530;-67
2023/07/25 02:43:07;;;;;;;4.47;3.17;;;18.90;99.90;;;;;;5056550;28;20525;-68
2023/07/25 02:45:34;;;;;;;7.20;4.07;;;18.90;99.90;;;;;;5056253;28;20434;-68
2023/07/25 02:48:01;;;;;;;6.87;3.90;;;19.00;99.90;;;;;;5056484;28;20525;-68
2023/07/25 02:50:29;;;;;;;7.13;3.70;;;18.90;99.90;;;;;;5056451;28;20442;-68
2023/07/25 02:52:56;;;;;;;7.37;3.63;;;18.90;99.90;;;;;;5056333;28;20582;-67
2023/07/25 02:55:23;;;;;;;5.83;3.67;;;18.90;99.90;;;;;;5056060;28;20469;-68
2023/07/25 02:57:50;;;;;;;5.93;3.60;;;18.90;99.90;;;;;;5055021;28;20848;-68
2023/07/25 03:00:17;;;;;;;5.13;3.60;;;18.90;99.90;;;;;;5056368;28;20523;-68
2023/07/25 03:02:44;;;;;;;6.00;3.20;;;18.80;99.90;;;;;;5055897;28;20471;-68
2023/07/25 03:05:11;;;;;;;4.60;3.17;;;18.80;99.90;;;;;;5056251;28;20526;-68
2023/07/25 03:07:39;;;;;;;5.03;3.27;;;18.90;99.90;;;;;;5056126;28;20534;-68
2023/07/25 03:10:07;;;;;;;7.33;3.40;;;18.90;99.90;;;;;;5055995;28;20877;-68
2023/07/25 03:12:34;;;;;;;5.17;3.10;;;18.90;99.90;;;;;;5056101;28;20844;-68
2023/07/25 03:15:01;;;;;;;5.10;3.80;;;18.90;99.90;;;;;;5056080;28;20565;-68
2023/07/25 03:17:30;;;;;;;5.20;3.20;;;18.90;99.90;;;;;;5055959;28;20517;-68
2023/07/25 03:19:57;;;;;;;5.57;3.50;;;18.80;99.90;;;;;;5056085;28;20523;-68
2023/07/25 03:22:24;;;;;;;5.47;3.93;;;18.80;99.90;;;;;;5055523;28;20438;-68
2023/07/25 03:24:52;;;;;;;6.53;3.43;;;18.80;99.90;;;;;;5055542;28;20535;-68
2023/07/25 03:27:19;;;;;;;4.70;3.60;;;18.80;99.90;;;;;;5055915;28;20526;-68
2023/07/25 03:29:46;;;;;;;6.07;3.87;;;18.80;99.90;;;;;;5055387;28;20445;-68
2023/07/25 03:32:13;;;;;;;5.47;3.83;;;18.70;99.90;;;;;;5055602;28;20526;-68
2023/07/25 03:34:40;;;;;;;5.07;3.20;;;18.80;99.90;;;;;;5055555;28;20561;-68
2023/07/25 03:37:07;;;;;;;5.67;3.80;;;18.80;99.90;;;;;;5055271;28;20524;-68
2023/07/25 03:39:34;;;;;;;8.17;4.60;;;18.70;99.90;;;;;;5055758;28;20545;-68
2023/07/25 03:42:03;;;;;;;4.83;3.00;;;18.80;99.90;;;;;;5055273;28;20521;-68
2023/07/25 03:44:30;;;;;;;5.43;3.70;;;18.70;99.90;;;;;;5055208;28;20445;-68
2023/07/25 03:46:56;;;;;;;6.33;4.10;;;18.60;99.90;;;;;;5055395;28;20866;-67
2023/07/25 03:49:23;;;;;;;8.83;3.93;;;18.60;99.90;;;;;;5055346;28;20524;-73
2023/07/25 03:51:50;;;;;;;5.93;3.30;;;18.50;99.90;;;;;;5055069;28;20529;-68
2023/07/25 03:54:20;;;;;;;4.50;3.47;;;18.40;99.90;;;;;;5055248;28;20507;-68
2023/07/25 03:56:47;;;;;;;5.37;4.10;;;18.30;99.90;;;;;;5055245;28;20532;-68
2023/07/25 03:59:16;;;;;;;7.17;4.43;;;18.20;99.90;;;;;;5055143;28;20479;-67
2023/07/25 04:01:42;;;;;;;7.30;4.00;;;18.20;99.90;;;;;;5054715;28;21008;-68
2023/07/25 04:04:09;;;;;;;6.73;3.40;;;18.20;99.90;;;;;;5055153;28;20491;-68
2023/07/25 04:06:37;;;;;;;8.30;4.07;;;18.20;99.90;;;;;;5054984;28;20529;-68
2023/07/25 04:09:04;;;;;;;5.30;3.83;;;18.20;99.90;;;;;;5054392;28;20525;-68
2023/07/25 04:11:31;;;;;;;6.10;4.13;;;18.10;99.90;;;;;;5054721;28;20514;-68
2023/07/25 04:13:58;;;;;;;9.23;3.83;;;18.10;99.90;;;;;;5054797;28;20556;-67
2023/07/25 04:16:27;;;;;;;5.30;4.07;;;18.00;99.90;;;;;;5055043;28;20548;-68
2023/07/25 04:18:53;;;;;;;5.03;3.37;;;18.00;99.90;;;;;;5054824;28;20525;-68
2023/07/25 04:21:20;;;;;;;6.30;3.57;;;17.90;99.90;;;;;;5054771;28;20537;-68
2023/07/25 04:23:47;;;;;;;4.73;3.77;;;17.70;99.90;;;;;;5055016;28;20524;-68
2023/07/25 04:26:14;;;;;;;5.57;4.17;;;17.70;99.90;;;;;;5054358;28;20465;-68
2023/07/25 04:28:41;;;;;;;6.30;4.10;;;17.70;99.90;;;;;;5054771;28;20473;-67
2023/07/25 04:31:08;;;;;;;5.40;3.33;;;17.80;99.90;;;;;;5054155;28;20521;-67
2023/07/25 04:33:36;;;;;;;5.13;3.73;;;17.80;99.90;;;;;;5054398;28;20563;-68
2023/07/25 04:36:03;;;;;;;5.53;4.13;;;17.80;99.90;;;;;;5054238;28;20521;-68
2023/07/25 04:38:30;;;;;;;5.73;3.83;;;17.90;99.90;;;;;;5054497;28;20529;-68
2023/07/25 04:40:57;;;;;;;5.20;3.47;;;17.90;99.90;;;;;;5054106;28;20516;-68
2023/07/25 04:43:24;;;;;;;5.60;3.40;;;17.80;99.90;;;;;;5054395;28;20511;-68
2023/07/25 04:45:51;;;;;;;4.87;3.73;;;17.80;99.90;;;;;;5053915;28;20516;-68
2023/07/25 04:48:18;;;;;;;5.33;3.30;;;17.60;99.90;;;;;;5053971;28;20528;-68
2023/07/25 04:50:46;;;;;;;8.13;3.27;;;17.60;99.90;;;;;;5054162;28;20871;-68
2023/07/25 04:53:13;;;;;;;4.30;3.03;;;17.70;99.90;;;;;;5053808;28;20532;-67
2023/07/25 04:55:40;;;;;;;7.67;3.97;;;17.80;99.90;;;;;;5053780;28;20524;-68
2023/07/25 04:58:07;;;;;;;5.40;3.03;;;17.90;99.90;;;;;;5054072;28;20520;-68
2023/07/25 05:00:34;;;;;;;4.73;3.00;;;18.00;99.90;;;;;;5054138;28;20521;-68
2023/07/25 05:03:01;;;;;;;4.80;3.63;;;18.00;99.90;;;;;;5053971;28;20512;-68
2023/07/25 05:05:27;;;;;;;6.00;2.83;;;18.00;99.90;;;;;;5053990;28;20524;-68
2023/07/25 05:07:56;;;;;;;4.60;3.10;;;18.10;99.90;;;;;;5053623;28;20532;-70
2023/07/25 05:10:22;;;;;;;6.13;3.23;;;18.10;99.90;;;;;;5053688;28;20553;-68
2023/07/25 05:12:49;;;;;;;4.30;3.73;;;18.10;99.90;;;;;;5053552;28;20520;-68
2023/07/25 05:15:16;;;;;;;6.23;3.73;;;18.20;99.90;;;;;;5053787;28;20577;-68
2023/07/25 05:17:43;;;;;;;6.47;3.40;;;18.20;99.90;;;;;;5053299;28;20537;-68
2023/07/25 05:20:11;;;;;;;4.77;3.30;;;18.30;99.90;;;;;;5053713;28;20525;-68
2023/07/25 05:22:38;;;;;;;5.50;2.67;;;18.30;99.90;;;;;;5052694;28;20474;-68
2023/07/25 05:25:07;;;;;;;5.37;3.00;;;18.20;99.90;;;;;;5053699;28;20533;-68
2023/07/25 05:27:34;;;;;;;4.70;2.83;;;18.20;99.90;;;;;;5053235;28;20529;-68
2023/07/25 05:30:01;;;;;;;8.47;2.87;;;18.20;99.90;;;;;;5053340;28;20512;-68
2023/07/25 05:32:28;;;;;;;4.10;2.90;;;18.30;99.90;;;;;;5053168;28;20500;-68
2023/07/25 05:34:54;;;;;;;4.17;2.67;;;18.30;99.90;;;;;;5053025;28;20476;-68
2023/07/25 05:37:23;;;;;;;3.83;2.73;;;18.30;99.90;;;;;;5053562;28;20520;-68
2023/07/25 05:39:51;;;;;;;5.90;3.70;;;18.30;99.90;;;;;;5053389;28;20529;-68
2023/07/25 05:42:20;;;;;;;4.30;3.00;;;18.20;99.90;;;;;;5053136;28;20445;-68
2023/07/25 05:44:47;;;;;;;7.10;3.63;;;18.20;99.90;;;;;;5053101;28;20448;-68
2023/07/25 05:47:13;;;;;;;4.90;3.53;;;18.20;99.90;;;;;;5053134;28;20536;-68
2023/07/25 05:49:40;;;;;;;5.50;2.80;;;18.30;99.90;;;;;;5053070;28;20477;-68
2023/07/25 05:52:08;;;;;;;4.43;2.77;;;18.30;99.90;;;;;;5053447;28;20533;-68
2023/07/25 05:54:35;;;;;;;3.80;2.60;;;18.40;99.90;;;;;;5053329;28;20989;-68
2023/07/25 05:57:02;;;;;;;5.57;2.80;;;18.30;99.90;;;;;;5053372;28;20470;-68
2023/07/25 05:59:30;;;;;;;4.87;3.07;;;18.30;99.90;;;;;;5053339;28;20521;-68
2023/07/25 06:01:57;;;;;;;4.70;3.20;;;18.40;99.90;;;;;;5052922;28;20999;-68
2023/07/25 06:04:24;;;;;;;7.50;4.90;;;18.40;99.90;;;;;;5053283;28;20526;-68
2023/07/25 06:06:51;;;;;;;10.33;5.07;;;18.40;99.90;;;;;;5053342;28;20485;-68
2023/07/25 06:09:18;;;;;;;6.30;4.50;;;18.50;99.90;;;;;;5052968;28;20561;-68
2023/07/25 06:11:45;;;;;;;8.10;2.90;;;18.60;99.90;;;;;;5053472;28;20442;-68
2023/07/25 06:14:12;;;;;;;3.90;2.53;;;18.60;99.90;;;;;;5052814;28;20465;-68
2023/07/25 06:16:40;;;;;;;8.63;3.70;;;18.70;99.90;;;;;;5053155;28;20545;-68
2023/07/25 06:19:07;;;;;;;5.00;2.77;;;18.60;99.90;;;;;;5052899;28;20995;-68
2023/07/25 06:21:34;;;;;;;5.90;2.73;;;18.60;99.90;;;;;;5052748;28;20979;-68
2023/07/25 06:24:01;;;;;;;4.13;3.10;;;18.60;99.90;;;;;;5053146;28;20516;-68
2023/07/25 06:26:28;;;;;;;7.30;2.83;;;18.60;99.90;;;;;;5053105;28;20478;-68
2023/07/25 06:28:55;;;;;;;5.63;3.03;;;18.60;99.90;;;;;;5053193;28;20524;-68
2023/07/25 06:31:22;;;;;;;6.13;3.20;;;18.60;99.90;;;;;;5053002;28;20528;-68
2023/07/25 06:33:50;;;;;;;5.23;2.83;;;18.60;99.90;;;;;;5056154;28;20526;-69
2023/07/25 06:36:17;;;;;;;4.20;2.37;;;18.60;99.90;;;;;;5056842;28;20533;-68
2023/07/25 06:38:44;;;;;;;4.60;2.90;;;18.60;99.90;;;;;;5056724;28;20533;-68
2023/07/25 06:41:10;;;;;;;4.60;2.77;;;18.50;99.90;;;;;;5056740;28;20521;-67
2023/07/25 06:43:37;;;;;;;5.13;2.57;;;18.50;99.90;;;;;;5056522;28;20968;-68
2023/07/25 06:46:04;;;;;;;5.90;3.37;;;18.50;99.90;;;;;;5056199;28;21003;-68
2023/07/25 06:48:31;;;;;;;4.37;2.80;;;18.40;99.90;;;;;;5056637;28;20529;-68
2023/07/25 06:50:59;;;;;;;5.60;3.00;;;18.30;99.90;;;;;;5056764;28;20522;-68
2023/07/25 06:53:26;;;;;;;5.53;2.40;;;18.10;99.90;;;;;;5056119;28;20528;-68
2023/07/25 06:55:53;;;;;;;5.63;3.50;;;18.00;99.90;;;;;;5056433;28;20899;-68
2023/07/25 06:58:20;;;;;;;4.40;2.20;;;18.10;99.90;;;;;;5056728;28;20539;-68
2023/07/25 07:00:47;;;;;;;6.10;3.23;;;18.20;99.90;;;;;;5056260;28;20477;-68
2023/07/25 07:03:14;;;;;;;4.60;3.20;;;18.20;99.90;;;;;;5056222;28;20874;-67
2023/07/25 07:05:41;;;;;;;3.83;2.70;;;18.30;99.90;;;;;;5056283;28;20450;-68
2023/07/25 07:08:09;;;;;;;3.67;2.20;;;18.40;99.90;;;;;;5055873;28;20629;-68
2023/07/25 07:10:36;;;;;;;4.57;2.70;;;18.40;99.90;;;;;;5055905;28;20558;-68
2023/07/25 07:13:03;;;;;;;4.40;3.23;;;18.50;99.90;;;;;;5055987;28;20525;-68
2023/07/25 07:15:30;;;;;;;4.90;2.60;;;18.50;99.90;;;;;;5056096;28;20507;-69
2023/07/25 07:17:57;;;;;;;4.83;2.77;;;18.60;99.90;;;;;;5055952;28;20808;-68
2023/07/25 07:20:24;;;;;;;4.37;2.90;;;18.50;99.90;;;;;;5056002;28;20525;-68
2023/07/25 07:22:51;;;;;;;4.10;2.43;;;18.50;99.90;;;;;;5055551;28;20530;-68
2023/07/25 07:25:19;;;;;;;4.33;2.10;;;18.50;99.90;;;;;;5055523;28;21001;-68
2023/07/25 07:27:46;;;;;;;4.13;2.20;;;18.60;99.90;;;;;;5055841;28;20534;-68
2023/07/25 07:30:13;;;;;;;3.63;2.30;;;18.50;99.90;;;;;;5056024;28;20530;-73
2023/07/25 07:32:40;;;;;;;3.40;2.17;;;18.50;99.90;;;;;;5055706;28;20521;-68
2023/07/25 07:35:07;;;;;;;3.33;2.20;;;18.50;99.90;;;;;;5055698;28;20896;-68
2023/07/25 07:37:34;;;;;;;7.73;3.10;;;18.40;99.90;;;;;;5055390;28;20522;-68
2023/07/25 07:40:03;;;;;;;3.83;2.40;;;18.40;99.90;;;;;;5055315;28;20991;-68
2023/07/25 07:42:31;;;;;;;4.43;2.53;;;18.30;99.90;;;;;;5055754;28;20444;-68
2023/07/25 07:44:58;;;;;;;4.60;2.47;;;18.40;99.90;;;;;;5054468;28;21108;-68
2023/07/25 07:47:25;;;;;;;4.37;2.23;;;18.40;99.90;;;;;;5055487;28;20541;-68
2023/07/25 07:49:52;;;;;;;4.47;2.27;;;18.40;99.90;;;;;;5055411;28;20480;-68
2023/07/25 07:52:19;;;;;;;3.50;2.00;;;18.30;99.90;;;;;;5055070;28;20441;-68
2023/07/25 07:54:46;;;;;;;5.77;3.53;;;18.30;99.90;;;;;;5055230;28;20585;-68
2023/07/25 07:57:12;;;;;;;7.27;2.03;;;18.20;99.90;;;;;;5055262;28;20525;-68
2023/07/25 07:59:43;;;;;;;3.33;2.20;;;18.20;99.90;;;;;;5055236;28;20461;-68
2023/07/25 08:02:10;;;;;;;4.53;2.10;;;18.20;99.90;;;;;;5055085;28;20464;-68
2023/07/25 08:04:37;;;;;;;3.80;2.07;;;18.10;99.90;;;;;;5054868;28;20537;-68
2023/07/25 08:07:04;;;;;;;5.20;2.73;;;18.10;99.90;;;;;;5055089;28;20499;-68
2023/07/25 08:09:31;;;;;;;3.57;2.10;;;18.10;99.90;;;;;;5054897;28;20917;-68
2023/07/25 08:11:58;;;;;;;8.30;2.30;;;18.00;99.40;;;;;;5054925;28;20522;-69
2023/07/25 08:14:26;;;;;;;3.63;2.10;;;17.90;99.80;;;;;;5054849;28;20434;-68
2023/07/25 08:16:54;;;;;;;4.43;2.37;;;17.80;99.90;;;;;;5054509;28;20445;-67
2023/07/25 08:19:21;;;;;;;3.70;2.43;;;17.80;99.90;;;;;;5054728;28;20791;-68
2023/07/25 08:21:48;;;;;;;4.40;2.53;;;17.70;99.90;;;;;;5054504;28;20534;-67
2023/07/25 08:24:14;;;;;;;5.10;2.80;;;17.70;99.90;;;;;;5054791;28;20859;-68
2023/07/25 08:26:41;;;;;;;5.87;3.80;;;17.70;99.90;;;;;;5054742;28;20536;-68
2023/07/25 08:29:08;;;;;;;3.70;1.73;;;17.60;99.90;;;;;;5054375;28;20537;-68
2023/07/25 08:31:35;;;;;;;3.17;1.63;;;17.60;99.90;;;;;;5054518;28;20858;-68
2023/07/25 08:34:03;;;;;;;3.97;2.70;;;17.70;99.90;;;;;;5054674;28;20521;-68
2023/07/25 08:36:30;;;;;;;3.93;1.93;;;17.70;99.90;;;;;;5054123;28;21039;-67
2023/07/25 08:38:58;;;;;;;3.40;2.20;;;17.70;99.60;;;;;;5054399;28;20995;-68
2023/07/25 08:41:30;;;;;;;5.80;2.60;;;17.50;99.90;;;;;;5054552;28;20442;-68
2023/07/25 08:44:01;;;;;;;4.00;2.00;;;17.50;99.90;;;;;;5054399;28;20518;-68
2023/07/25 08:46:29;;;;;;;3.23;1.90;;;17.50;99.90;;;;;;5054444;28;20496;-68
2023/07/25 08:49:02;;;;;;;3.60;2.27;;;17.50;99.90;;;;;;5053942;28;20442;-67
2023/07/25 08:51:35;;;;;;;4.93;2.63;;;17.40;99.90;;;;;;5054220;28;20492;-68
2023/07/25 08:54:08;;;;;;;5.40;2.70;;;17.40;99.90;;;;;;5054565;28;20430;-68
2023/07/25 08:56:35;;;;;;;4.77;2.60;;;17.50;99.90;;;;;;5054132;28;20483;-68
2023/07/25 08:59:03;;;;;;;3.77;2.00;;;17.60;99.90;;;;;;5053840;28;20477;-68
2023/07/25 09:01:32;;;;;;;4.47;2.40;;;17.60;99.90;;;;;;5054072;28;20525;-68
2023/07/25 09:04:00;;;;;;;4.77;2.50;;;17.60;99.90;;;;;;5054115;28;20525;-68
2023/07/25 09:06:27;;;;;;;3.93;2.43;;;17.40;99.90;;;;;;5053597;28;20528;-67
2023/07/25 09:08:55;;;;;;;3.87;2.27;;;17.30;99.90;;;;;;5053427;28;20538;-68
2023/07/25 09:11:22;;;;;;;3.43;2.03;;;17.30;99.90;;;;;;5053926;28;20512;-68
2023/07/25 09:13:50;;;;;;;4.30;2.00;;;17.30;99.90;;;;;;5053865;28;20512;-67
2023/07/25 09:16:17;;;;;;;5.13;1.70;;;17.30;99.90;;;;;;5053642;28;20576;-68
2023/07/25 09:18:44;;;;;;;3.00;1.90;;;17.30;99.90;;;;;;5053939;28;20436;-67
2023/07/25 09:21:11;;;;;;;7.00;3.30;;;17.40;99.90;;;;;;5053526;28;20528;-68
2023/07/25 09:23:40;;;;;;;3.90;2.40;;;17.50;99.90;;;;;;5053463;28;20440;-68
2023/07/25 09:26:10;;;;;;;3.97;2.17;;;17.60;99.90;;;;;;5053855;28;20499;-67
2023/07/25 09:28:47;;;;;;;3.90;1.90;;;17.70;99.90;;;;;;5053939;28;20429;-68
2023/07/25 09:31:14;;;;;;;3.67;2.23;;;17.70;99.90;;;;;;5053305;28;20967;-67
2023/07/25 09:33:41;;;;;;;3.60;2.50;;;17.90;99.90;;;;;;5053750;28;20470;-68
2023/07/25 09:36:09;;;;;;;3.60;1.90;;;17.90;99.90;;;;;;5053202;28;20480;-68
2023/07/25 09:38:36;;;;;;;3.03;1.70;;;18.10;99.90;;;;;;5053269;28;21007;-69
2023/07/25 09:41:03;;;;;;;4.00;1.93;;;18.20;99.90;;;;;;5053584;28;20958;-68
2023/07/25 09:43:31;;;;;;;4.10;2.10;;;18.40;99.90;;;;;;5053574;28;20444;-67
2023/07/25 09:45:58;;;;;;;3.40;2.17;;;18.40;97.80;;;;;;5053202;28;20532;-68
2023/07/25 09:48:25;;;;;;;3.40;2.03;;;18.40;98.40;;;;;;5053142;28;20526;-68
2023/07/25 09:50:52;;;;;;;3.70;1.90;;;18.50;97.80;;;;;;5053506;28;20863;-67
2023/07/25 09:53:19;;;;;;;3.30;1.90;;;18.60;96.00;;;;;;5053529;28;20584;-68
2023/07/25 09:55:46;;;;;;;2.80;1.47;;;18.50;94.60;;;;;;5053470;28;20560;-67
2023/07/25 09:58:13;;;;;;;3.10;1.70;;;18.30;95.80;;;;;;5053128;28;20425;-68
2023/07/25 10:00:42;;;;;;;2.33;1.50;;;18.10;96.10;;;;;;5053058;28;20531;-68
2023/07/25 10:03:10;;;;;;;2.73;1.47;;;18.10;96.70;;;;;;5053207;28;20520;-67
2023/07/25 10:05:41;;;;;;;3.10;1.80;;;18.20;96.70;;;;;;5053355;28;20849;-68
2023/07/25 10:08:09;;;;;;;3.57;2.00;;;18.10;96.30;;;;;;5055618;28;20517;-68
2023/07/25 10:10:36;;;;;;;2.80;1.40;;;18.20;97.00;;;;;;5056916;28;20472;-68
2023/07/25 10:13:03;;;;;;;2.80;1.80;;;18.40;97.30;;;;;;5057006;28;20963;-68
2023/07/25 10:15:30;;;;;;;3.07;1.63;;;18.60;97.20;;;;;;5056785;28;20569;-69
2023/07/25 10:18:04;;;;;;;3.47;1.60;;;18.70;96.20;;;;;;5057141;28;20517;-69
2023/07/25 10:20:31;;;;;;;2.63;1.70;;;18.80;95.80;;;;;;5056908;28;20925;-67
2023/07/25 10:23:07;;;;;;;4.53;1.97;;;18.90;95.70;;;;;;5056769;28;20442;-68
2023/07/25 10:25:35;;;;;;;2.43;1.73;;;18.90;95.10;;;;;;5057125;28;20450;-68
2023/07/25 10:28:03;;;;;;;3.57;1.60;;;18.90;95.80;;;;;;5056639;28;20521;-68
2023/07/25 10:30:33;;;;;;;4.53;2.00;;;18.90;96.00;;;;;;5056938;28;20529;-69
2023/07/25 10:33:01;;;;;;;3.33;2.03;;;18.70;95.10;;;;;;5056637;28;20439;-67
2023/07/25 10:35:43;;;;;;;5.30;1.67;;;18.60;95.10;;;;;;5056774;28;20564;-68
2023/07/25 10:38:11;;;;;;;3.47;2.03;;;18.80;95.90;;;;;;5056554;28;20438;-68
2023/07/25 10:40:55;;;;;;;3.10;2.07;;;18.90;96.30;;;;;;5056761;28;20438;-70
2023/07/25 10:43:26;;;;;;;3.30;1.53;;;18.90;96.40;;;;;;5056520;28;20458;-68
2023/07/25 10:45:54;;;;;;;3.83;2.77;;;18.90;95.80;;;;;;5056656;28;20482;-68
2023/07/25 10:48:32;;;;;;;3.20;2.13;;;18.90;96.10;;;;;;5056432;28;20451;-67
2023/07/25 10:51:02;;;;;;;3.73;1.60;;;19.00;96.60;;;;;;5056597;28;20449;-68
2023/07/25 10:53:29;;;;;;;4.10;1.60;;;19.00;95.50;;;;;;5056381;28;20422;-70
2023/07/25 10:56:16;;;;;;;6.63;1.57;;;19.10;95.90;;;;;;5056477;28;20574;-68
2023/07/25 10:59:06;;;;;;;2.80;1.50;;;19.10;95.70;;;;;;5056114;28;20488;-69
2023/07/25 11:01:44;;;;;;;2.50;1.47;;;19.20;96.10;;;;;;5056274;28;20517;-68
2023/07/25 11:04:25;;;;;;;2.60;1.60;;;19.20;96.10;;;;;;5056386;28;20433;-71
2023/07/25 11:06:55;;;;;;;2.57;1.50;;;19.10;96.60;;;;;;5056458;28;20462;-68
2023/07/25 11:09:23;;;;;;;5.00;1.80;;;19.20;96.70;;;;;;5056121;28;20485;-69
2023/07/25 11:11:51;;;;;;;3.77;1.57;;;19.30;96.70;;;;;;5056195;28;20550;-69
2023/07/25 11:14:20;;;;;;;5.33;2.73;;;19.40;96.70;;;;;;5055981;28;20526;-68
2023/07/25 11:16:49;;;;;;;4.20;1.87;;;19.60;95.60;;;;;;5055587;28;20479;-68
2023/07/25 11:19:16;;;;;;;7.00;4.80;;;19.70;95.30;;;;;;5054935;28;20435;-68
2023/07/25 11:21:45;;;;;;;3.10;1.90;;;19.80;95.30;;;;;;5056045;28;20521;-68
2023/07/25 11:24:14;;;;;;;3.20;1.50;;;20.00;95.30;;;;;;5055874;28;20443;-68
2023/07/25 11:26:43;;;;;;;4.10;1.50;;;20.00;92.50;;;;;;5055945;28;20443;-68
2023/07/25 11:29:11;;;;;;;2.60;1.40;;;20.10;92.60;;;;;;5055555;28;20474;-68
2023/07/25 11:31:42;;;;;;;4.00;2.00;;;20.20;92.00;;;;;;5055657;28;20520;-68
2023/07/25 11:34:11;;;;;;;2.40;1.13;;;20.30;91.10;;;;;;5055532;28;20949;-68
2023/07/25 11:36:38;;;;;;;4.17;1.90;;;20.40;91.30;;;;;;5055685;28;20475;-68
2023/07/25 11:39:05;;;;;;;2.53;1.17;;;20.50;90.70;;;;;;5055294;28;20443;-68
2023/07/25 11:41:35;;;;;;;3.03;1.53;;;20.60;85.70;;;;;;5055524;28;20533;-68
2023/07/25 11:44:05;;;;;;;4.57;1.43;;;20.60;85.50;;;;;;5055242;28;20530;-68
2023/07/25 11:46:33;;;;;;;3.10;1.63;;;20.60;85.10;;;;;;5055172;28;20902;-68
2023/07/25 11:49:00;;;;;;;3.73;1.20;;;20.70;83.30;;;;;;5055517;28;20447;-68
2023/07/25 11:51:28;;;;;;;2.83;1.73;;;20.80;83.40;;;;;;5055437;28;20547;-68
2023/07/25 11:53:56;;;;;;;3.10;2.13;;;21.00;82.10;;;;;;5055069;28;20523;-68
2023/07/25 11:56:23;;;;;;;4.07;2.20;;;21.00;79.70;;;;;;5055211;28;20470;-72
2023/07/25 11:58:51;;;;;;;4.47;1.90;;;21.10;81.00;;;;;;5055229;28;20442;-68
2023/07/25 12:01:19;;;;;;;2.93;1.90;;;21.20;81.90;;;;;;5055094;28;20865;-68
2023/07/25 12:03:48;;;;;;;3.67;1.70;;;21.30;75.90;;;;;;5054876;28;20497;-68
2023/07/25 12:06:15;;;;;;;3.17;1.40;;;21.40;79.10;;;;;;5054859;28;20440;-68
2023/07/25 12:08:43;;;;;;;4.67;2.40;;;21.40;78.60;;;;;;5055219;28;20479;-68
2023/07/25 12:11:13;;;;;;;4.07;1.40;;;21.60;80.60;;;;;;5055112;28;20491;-68
2023/07/25 12:13:43;;;;;;;3.20;1.80;;;21.80;79.10;;;;;;5055083;28;20538;-68
2023/07/25 12:16:24;;;;;;;3.27;1.70;;;22.00;77.70;;;;;;5054635;28;20969;-69
2023/07/25 12:18:53;;;;;;;3.10;1.50;;;22.20;80.20;;;;;;5054900;28;20918;-68
2023/07/25 12:21:27;;;;;;;3.37;1.47;;;22.40;76.90;;;;;;5054965;28;20437;-68
2023/07/25 12:23:55;;;;;;;2.37;1.13;;;22.50;74.70;;;;;;5054864;28;20432;-68
2023/07/25 12:26:22;;;;;;;3.10;1.37;;;22.60;75.60;;;;;;5054694;28;20441;-69
2023/07/25 12:28:50;;;;;;;3.30;1.60;;;22.60;71.20;;;;;;5054314;28;20529;-68
2023/07/25 12:31:19;;;;;;;3.67;1.40;;;22.60;71.50;;;;;;5054499;28;20440;-68
2023/07/25 12:33:49;;;;;;;3.40;1.20;;;22.80;71.60;;;;;;5054664;28;20528;-68
2023/07/25 12:36:17;;;;;;;4.53;1.67;;;22.80;69.50;;;;;;5054952;28;20462;-68
2023/07/25 12:38:44;;;;;;;2.57;1.27;;;22.80;66.50;;;;;;5054194;28;20437;-68
2023/07/25 12:41:11;;;;;;;3.57;1.90;;;22.80;68.80;;;;;;5054153;28;21002;-68
2023/07/25 12:43:38;;;;;;;3.80;2.50;;;22.80;71.60;;;;;;5054072;28;20452;-68
2023/07/25 12:46:05;;;;;;;4.40;1.60;;;22.80;72.60;;;;;;5054025;28;20445;-68
2023/07/25 12:48:33;;;;;;;6.00;3.13;;;23.00;74.50;;;;;;5054397;28;20538;-68
2023/07/25 12:51:00;;;;;;;3.20;1.60;;;23.10;73.70;;;;;;5054406;28;20873;-68